createdAt,value
2024-04-23T00:01:57.752Z,19.60
2024-04-23T00:04:24.626Z,19.60
2024-04-23T00:06:54.964Z,19.60
2024-04-23T00:09:21.737Z,19.60
2024-04-23T00:11:48.588Z,19.70
2024-04-23T00:14:15.390Z,19.60
2024-04-23T00:16:42.247Z,19.70
2024-04-23T00:19:09.033Z,19.60
2024-04-23T00:21:35.763Z,19.60
2024-04-23T00:24:02.478Z,19.60
2024-04-23T00:26:29.714Z,19.60
2024-04-23T00:28:56.542Z,19.60
2024-04-23T00:31:23.856Z,19.60
2024-04-23T00:33:50.653Z,19.60
2024-04-23T00:36:17.370Z,19.60
2024-04-23T00:38:44.122Z,19.60
2024-04-23T00:41:10.868Z,19.60
2024-04-23T00:43:37.623Z,19.60
2024-04-23T00:46:05.834Z,19.60
2024-04-23T00:48:33.244Z,19.60
2024-04-23T00:51:00.023Z,19.60
2024-04-23T00:53:26.784Z,19.60
2024-04-23T00:55:53.561Z,19.60
2024-04-23T00:58:20.420Z,19.60
2024-04-23T01:00:47.158Z,19.60
2024-04-23T01:03:13.993Z,19.60
2024-04-23T01:05:40.771Z,19.60
2024-04-23T01:08:07.601Z,19.60
2024-04-23T01:10:34.662Z,19.60
2024-04-23T01:13:01.412Z,19.60
2024-04-23T01:15:28.162Z,19.60
2024-04-23T01:17:58.864Z,19.60
2024-04-23T01:20:25.649Z,19.70
2024-04-23T01:23:03.330Z,19.60
2024-04-23T01:25:30.233Z,19.60
2024-04-23T01:27:57.244Z,19.60
2024-04-23T01:30:25.162Z,19.50
2024-04-23T01:32:52.014Z,19.50
2024-04-23T01:35:18.839Z,19.50
2024-04-23T01:37:46.978Z,19.60
2024-04-23T01:40:13.797Z,19.50
2024-04-23T01:42:40.666Z,19.50
2024-04-23T01:45:07.735Z,19.50
2024-04-23T01:47:34.664Z,19.50
2024-04-23T01:50:01.754Z,19.50
2024-04-23T01:52:28.573Z,19.50
2024-04-23T01:54:55.402Z,19.50
2024-04-23T01:57:22.280Z,19.50
2024-04-23T01:59:49.991Z,19.60
2024-04-23T02:02:16.972Z,19.50
2024-04-23T02:04:44.024Z,19.50
2024-04-23T02:07:10.863Z,19.50
2024-04-23T02:09:37.606Z,19.50
2024-04-23T02:12:05.076Z,19.50
2024-04-23T02:14:31.851Z,19.50
2024-04-23T02:17:00.641Z,19.50
2024-04-23T02:19:27.884Z,19.50
2024-04-23T02:21:54.644Z,19.50
2024-04-23T02:24:21.369Z,19.50
2024-04-23T02:26:48.139Z,19.60
2024-04-23T02:29:14.889Z,19.50
2024-04-23T02:31:41.695Z,19.50
2024-04-23T02:34:08.488Z,19.50
2024-04-23T02:36:35.283Z,19.50
2024-04-23T02:39:02.078Z,19.50
2024-04-23T02:41:28.848Z,19.50
2024-04-23T02:43:55.666Z,19.50
2024-04-23T02:46:22.520Z,19.50
2024-04-23T02:48:49.427Z,19.50
2024-04-23T02:51:16.200Z,19.50
2024-04-23T02:53:42.939Z,19.50
2024-04-23T02:56:09.741Z,19.50
2024-04-23T02:58:36.533Z,19.50
2024-04-23T03:01:03.462Z,19.50
2024-04-23T03:03:30.235Z,19.50
2024-04-23T03:05:57.130Z,19.50
2024-04-23T03:08:23.902Z,19.50
2024-04-23T03:10:50.793Z,19.50
2024-04-23T03:13:17.557Z,19.50
2024-04-23T03:15:44.315Z,19.50
2024-04-23T03:18:11.156Z,19.50
2024-04-23T03:20:37.935Z,19.50
2024-04-23T03:23:04.996Z,19.50
2024-04-23T03:25:31.790Z,19.50
2024-04-23T03:27:58.578Z,19.50
2024-04-23T03:30:25.324Z,19.50
2024-04-23T03:32:52.212Z,19.50
2024-04-23T03:35:19.047Z,19.50
2024-04-23T03:37:45.841Z,19.50
2024-04-23T03:40:12.682Z,19.50
2024-04-23T03:42:39.461Z,19.40
2024-04-23T03:45:06.347Z,19.40
2024-04-23T03:47:33.287Z,19.50
2024-04-23T03:50:00.414Z,19.50
2024-04-23T03:52:27.880Z,19.50
2024-04-23T03:54:54.738Z,19.50
2024-04-23T03:57:23.913Z,19.50
2024-04-23T03:59:50.985Z,19.50
2024-04-23T04:02:37.272Z,19.50
2024-04-23T04:05:22.708Z,19.50
2024-04-23T04:07:49.589Z,19.50
2024-04-23T04:10:16.413Z,19.50
2024-04-23T04:12:43.217Z,19.50
2024-04-23T04:15:09.988Z,19.40
2024-04-23T04:17:37.066Z,19.50
2024-04-23T04:20:04.005Z,19.50
2024-04-23T04:22:30.897Z,19.50
2024-04-23T04:24:57.691Z,19.50
2024-04-23T04:27:24.440Z,19.50
2024-04-23T04:29:51.226Z,19.40
2024-04-23T04:32:18.045Z,19.50
2024-04-23T04:34:44.913Z,19.40
2024-04-23T04:37:11.690Z,19.50
2024-04-23T04:39:38.733Z,19.50
2024-04-23T04:42:05.543Z,19.50
2024-04-23T04:44:32.298Z,19.50
2024-04-23T04:47:02.879Z,19.50
2024-04-23T04:49:31.327Z,19.50
2024-04-23T04:51:58.106Z,19.50
2024-04-23T04:54:24.862Z,19.50
2024-04-23T04:56:51.643Z,19.50
2024-04-23T04:59:18.426Z,19.50
2024-04-23T05:01:46.224Z,19.50
2024-04-23T05:04:13.177Z,19.50
2024-04-23T05:06:40.047Z,19.50
2024-04-23T05:09:06.802Z,19.50
2024-04-23T05:11:33.650Z,19.50
2024-04-23T05:14:00.628Z,19.50
2024-04-23T05:16:27.472Z,19.50
2024-04-23T05:18:54.218Z,19.50
2024-04-23T05:21:20.975Z,19.50
2024-04-23T05:23:47.832Z,19.50
2024-04-23T05:26:14.644Z,19.50
2024-04-23T05:28:41.492Z,19.50
2024-04-23T05:31:27.090Z,19.50
2024-04-23T05:33:54.054Z,19.50
2024-04-23T05:36:24.064Z,19.50
2024-04-23T05:38:50.895Z,19.50
2024-04-23T05:41:17.747Z,19.50
2024-04-23T05:43:44.620Z,19.50
2024-04-23T05:46:11.391Z,19.50
2024-04-23T05:48:56.998Z,19.50
2024-04-23T05:51:42.530Z,19.50
2024-04-23T05:54:28.129Z,19.50
2024-04-23T05:56:54.876Z,19.60
2024-04-23T05:59:21.741Z,19.70
2024-04-23T06:01:48.528Z,19.80
2024-04-23T06:04:15.272Z,20.00
2024-04-23T06:06:42.184Z,20.10
2024-04-23T06:09:08.934Z,20.20
2024-04-23T06:11:36.033Z,20.30
2024-04-23T06:14:07.378Z,20.30
2024-04-23T06:16:34.229Z,20.20
2024-04-23T06:19:01.190Z,20.20
2024-04-23T06:21:28.000Z,20.10
2024-04-23T06:23:54.773Z,20.10
2024-04-23T06:26:21.541Z,20.00
2024-04-23T06:28:48.330Z,20.00
2024-04-23T06:31:15.157Z,20.00
2024-04-23T06:33:41.953Z,19.90
2024-04-23T06:36:08.914Z,19.90
2024-04-23T06:38:35.963Z,19.90
2024-04-23T06:41:02.846Z,19.90
2024-04-23T06:43:29.725Z,19.80
2024-04-23T06:45:56.686Z,19.80
2024-04-23T06:48:23.464Z,19.80
2024-04-23T06:50:50.211Z,19.80
2024-04-23T06:53:17.128Z,19.80
2024-04-23T06:55:44.024Z,19.70
2024-04-23T06:58:11.391Z,19.70
2024-04-23T07:00:38.210Z,19.70
2024-04-23T07:03:05.636Z,19.70
2024-04-23T07:05:32.450Z,19.70
2024-04-23T07:07:59.966Z,19.70
2024-04-23T07:10:26.784Z,19.70
2024-04-23T07:12:53.608Z,19.70
2024-04-23T07:15:20.947Z,19.70
2024-04-23T07:17:47.791Z,19.70
2024-04-23T07:20:14.826Z,19.70
2024-04-23T07:22:41.712Z,19.70
2024-04-23T07:25:08.500Z,19.70
2024-04-23T07:27:35.298Z,19.70
2024-04-23T07:30:02.096Z,19.70
2024-04-23T07:32:28.985Z,19.70
2024-04-23T07:34:55.895Z,19.70
2024-04-23T07:37:22.692Z,19.70
2024-04-23T07:39:49.443Z,19.70
2024-04-23T07:42:16.231Z,19.70
2024-04-23T07:44:42.994Z,19.70
2024-04-23T07:47:09.879Z,19.70
2024-04-23T07:49:36.929Z,19.70
2024-04-23T07:52:03.836Z,19.70
2024-04-23T07:54:30.587Z,19.70
2024-04-23T07:56:57.375Z,19.70
2024-04-23T07:59:24.120Z,19.70
2024-04-23T08:01:50.950Z,19.70
2024-04-23T08:04:17.746Z,19.70
2024-04-23T08:06:44.571Z,19.70
2024-04-23T08:09:11.363Z,19.70
2024-04-23T08:11:38.434Z,19.60
2024-04-23T08:14:05.404Z,19.70
2024-04-23T08:16:32.351Z,19.60
2024-04-23T08:18:59.332Z,19.60
2024-04-23T08:21:26.163Z,19.60
2024-04-23T08:23:52.991Z,19.60
2024-04-23T08:26:19.867Z,19.60
2024-04-23T08:28:48.094Z,19.60
2024-04-23T08:31:15.141Z,19.60
2024-04-23T08:33:41.966Z,19.60
2024-04-23T08:36:08.792Z,19.60
2024-04-23T08:38:35.581Z,19.70
2024-04-23T08:41:02.962Z,19.60
2024-04-23T08:43:34.565Z,19.70
2024-04-23T08:46:01.672Z,19.70
2024-04-23T08:48:31.688Z,19.70
2024-04-23T08:51:01.314Z,19.60
2024-04-23T08:53:28.746Z,19.60
2024-04-23T08:56:01.592Z,19.60
2024-04-23T08:58:28.462Z,19.60
2024-04-23T09:00:57.309Z,19.70
2024-04-23T09:03:24.897Z,19.60
2024-04-23T09:05:51.681Z,19.60
2024-04-23T09:08:20.625Z,19.70
2024-04-23T09:10:47.556Z,19.60
2024-04-23T09:13:14.351Z,19.60
2024-04-23T09:15:41.198Z,19.60
2024-04-23T09:18:08.617Z,19.60
2024-04-23T09:20:35.578Z,19.60
2024-04-23T09:23:02.706Z,19.60
2024-04-23T09:25:34.469Z,19.60
2024-04-23T09:28:02.340Z,19.60
2024-04-23T09:30:31.178Z,19.60
2024-04-23T09:33:04.551Z,19.60
2024-04-23T09:35:31.528Z,19.60
2024-04-23T09:37:58.329Z,19.60
2024-04-23T09:40:25.140Z,19.60
2024-04-23T09:42:54.238Z,19.70
2024-04-23T09:45:26.199Z,19.70
2024-04-23T09:47:52.988Z,19.70
2024-04-23T09:50:21.281Z,19.70
2024-04-23T09:52:48.818Z,19.70
2024-04-23T09:55:16.802Z,19.70
2024-04-23T09:57:43.879Z,19.70
2024-04-23T10:00:11.827Z,19.70
2024-04-23T10:02:39.843Z,19.70
2024-04-23T10:05:08.866Z,19.70
2024-04-23T10:07:37.865Z,19.70
2024-04-23T10:10:04.818Z,19.70
2024-04-23T10:12:31.715Z,19.70
2024-04-23T10:15:09.849Z,19.70
2024-04-23T10:17:38.820Z,19.70
2024-04-23T10:20:05.884Z,19.70
2024-04-23T10:22:32.817Z,19.60
2024-04-23T10:24:59.616Z,19.60
2024-04-23T10:27:26.466Z,19.70
2024-04-23T10:29:53.650Z,19.70
2024-04-23T10:32:20.771Z,19.70
2024-04-23T10:34:48.245Z,19.60
2024-04-23T10:37:15.218Z,19.70
2024-04-23T10:39:42.170Z,19.70
2024-04-23T10:42:10.047Z,19.70
2024-04-23T10:44:37.225Z,19.70
2024-04-23T10:47:04.149Z,19.70
2024-04-23T10:49:30.975Z,19.70
2024-04-23T10:51:57.957Z,19.70
2024-04-23T10:54:24.702Z,19.70
2024-04-23T10:56:57.699Z,19.70
2024-04-23T10:59:28.231Z,19.70
2024-04-23T11:02:00.496Z,19.70
2024-04-23T11:04:36.987Z,19.70
2024-04-23T11:07:07.490Z,19.70
2024-04-23T11:09:34.707Z,19.70
2024-04-23T11:12:01.443Z,19.70
2024-04-23T11:14:37.237Z,19.70
2024-04-23T11:17:04.421Z,19.70
2024-04-23T11:19:40.921Z,19.70
2024-04-23T11:22:10.935Z,19.70
2024-04-23T11:24:42.317Z,19.70
2024-04-23T11:27:09.091Z,19.70
2024-04-23T11:29:37.176Z,19.70
2024-04-23T11:32:04.053Z,19.70
2024-04-23T11:34:30.838Z,19.70
2024-04-23T11:36:57.578Z,19.70
2024-04-23T11:39:25.400Z,19.80
2024-04-23T11:41:52.159Z,19.70
2024-04-23T11:44:19.274Z,19.70
2024-04-23T11:46:46.185Z,19.70
2024-04-23T11:49:12.999Z,19.70
2024-04-23T11:51:39.817Z,19.80
2024-04-23T11:54:06.672Z,19.70
2024-04-23T11:56:33.491Z,19.70
2024-04-23T11:59:01.173Z,19.70
2024-04-23T12:01:28.028Z,19.70
2024-04-23T12:03:54.873Z,19.70
2024-04-23T12:06:21.788Z,19.70
2024-04-23T12:08:48.959Z,19.80
2024-04-23T12:11:16.032Z,19.90
2024-04-23T12:13:48.980Z,20.00
2024-04-23T12:16:16.935Z,20.10
2024-04-23T12:18:43.819Z,20.20
2024-04-23T12:21:10.802Z,20.40
2024-04-23T12:23:37.577Z,20.50
2024-04-23T12:26:06.913Z,20.70
2024-04-23T12:28:33.777Z,20.70
2024-04-23T12:31:00.537Z,20.60
2024-04-23T12:33:28.120Z,20.60
2024-04-23T12:36:04.327Z,20.50
2024-04-23T12:38:40.317Z,20.40
2024-04-23T12:41:07.122Z,20.40
2024-04-23T12:43:33.951Z,20.30
2024-04-23T12:46:00.717Z,20.20
2024-04-23T12:48:27.639Z,20.20
2024-04-23T12:50:54.873Z,20.20
2024-04-23T12:53:22.308Z,20.10
2024-04-23T12:55:49.509Z,20.10
2024-04-23T12:58:16.332Z,20.10
2024-04-23T13:00:43.074Z,20.10
2024-04-23T13:03:10.038Z,20.10
2024-04-23T13:05:37.052Z,20.10
2024-04-23T13:08:04.253Z,20.10
2024-04-23T13:10:31.030Z,20.10
2024-04-23T13:12:57.852Z,20.10
2024-04-23T13:15:24.647Z,20.00
2024-04-23T13:17:52.663Z,20.10
2024-04-23T13:20:19.555Z,20.00
2024-04-23T13:22:46.509Z,20.00
2024-04-23T13:25:13.448Z,20.00
2024-04-23T13:27:40.236Z,20.00
2024-04-23T13:30:07.439Z,20.00
2024-04-23T13:32:37.792Z,20.00
2024-04-23T13:35:05.267Z,20.00
2024-04-23T13:37:32.561Z,20.00
2024-04-23T13:40:03.549Z,20.00
2024-04-23T13:42:33.555Z,20.00
2024-04-23T13:45:00.600Z,20.00
2024-04-23T13:47:34.458Z,20.00
2024-04-23T13:50:01.387Z,20.00
2024-04-23T13:52:28.158Z,20.00
2024-04-23T13:54:54.924Z,20.00
2024-04-23T13:57:21.979Z,20.00
2024-04-23T13:59:48.855Z,20.00
2024-04-23T14:02:15.939Z,19.90
2024-04-23T14:04:46.165Z,19.90
2024-04-23T14:07:13.581Z,20.00
2024-04-23T14:09:40.588Z,20.00
2024-04-23T14:12:09.304Z,19.90
2024-04-23T14:14:36.686Z,20.00
2024-04-23T14:17:03.586Z,19.90
2024-04-23T14:19:34.978Z,20.00
2024-04-23T14:22:05.034Z,20.00
2024-04-23T14:24:34.745Z,20.00
2024-04-23T14:27:01.516Z,20.00
2024-04-23T14:29:28.552Z,20.00
2024-04-23T14:31:55.316Z,20.00
2024-04-23T14:34:24.920Z,20.00
2024-04-23T14:36:52.324Z,20.00
2024-04-23T14:39:19.301Z,20.00
2024-04-23T14:41:47.221Z,20.00
2024-04-23T14:44:14.113Z,20.00
2024-04-23T14:46:41.531Z,19.90
2024-04-23T14:49:19.086Z,20.00
2024-04-23T14:51:51.167Z,20.00
2024-04-23T14:54:17.984Z,20.00
2024-04-23T14:56:44.865Z,20.00
2024-04-23T14:59:11.756Z,20.00
2024-04-23T15:01:39.820Z,20.00
2024-04-23T15:04:06.803Z,20.00
2024-04-23T15:06:33.706Z,20.00
2024-04-23T15:09:00.954Z,20.00
2024-04-23T15:11:28.009Z,20.00
2024-04-23T15:13:54.946Z,20.00
2024-04-23T15:16:21.690Z,20.00
2024-04-23T15:18:48.482Z,20.00
2024-04-23T15:21:15.508Z,20.00
2024-04-23T15:23:42.341Z,20.00
2024-04-23T15:26:09.215Z,20.00
2024-04-23T15:28:41.510Z,20.00
2024-04-23T15:31:08.683Z,20.10
2024-04-23T15:33:35.990Z,20.20
2024-04-23T15:36:09.219Z,20.40
2024-04-23T15:38:37.095Z,20.50
2024-04-23T15:41:07.608Z,20.50
2024-04-23T15:43:34.477Z,20.70
2024-04-23T15:46:01.371Z,20.70
2024-04-23T15:48:28.726Z,20.70
2024-04-23T15:50:59.180Z,20.70
2024-04-23T15:53:26.344Z,20.60
2024-04-23T15:55:57.541Z,20.50
2024-04-23T15:58:24.432Z,20.50
2024-04-23T16:00:51.263Z,20.40
2024-04-23T16:03:19.986Z,20.40
2024-04-23T16:05:46.974Z,20.40
2024-04-23T16:08:13.917Z,20.30
2024-04-23T16:10:40.886Z,20.30
2024-04-23T16:13:07.884Z,20.30
2024-04-23T16:15:34.670Z,20.30
2024-04-23T16:18:01.676Z,20.30
2024-04-23T16:20:28.670Z,20.30
2024-04-23T16:22:55.536Z,20.20
2024-04-23T16:25:22.380Z,20.20
2024-04-23T16:27:49.793Z,20.20
2024-04-23T16:30:16.628Z,20.20
2024-04-23T16:32:43.617Z,20.20
2024-04-23T16:35:10.526Z,20.20
2024-04-23T16:37:37.344Z,20.20
2024-04-23T16:40:04.165Z,20.30
2024-04-23T16:42:30.923Z,20.30
2024-04-23T16:44:57.780Z,20.20
2024-04-23T16:47:26.297Z,20.30
2024-04-23T16:49:53.118Z,20.20
2024-04-23T16:52:19.956Z,20.20
2024-04-23T16:54:46.777Z,20.20
2024-04-23T16:57:13.529Z,20.20
2024-04-23T16:59:40.848Z,20.20
2024-04-23T17:02:07.683Z,20.20
2024-04-23T17:04:34.912Z,20.20
2024-04-23T17:07:01.755Z,20.20
2024-04-23T17:09:28.597Z,20.20
2024-04-23T17:11:55.540Z,20.20
2024-04-23T17:14:22.723Z,20.20
2024-04-23T17:16:50.765Z,20.20
2024-04-23T17:19:17.597Z,20.10
2024-04-23T17:21:44.427Z,20.20
2024-04-23T17:24:11.355Z,20.10
2024-04-23T17:26:38.291Z,20.20
2024-04-23T17:29:05.076Z,20.10
2024-04-23T17:31:31.898Z,20.20
2024-04-23T17:33:59.094Z,20.10
2024-04-23T17:36:26.070Z,20.10
2024-04-23T17:38:53.037Z,20.10
2024-04-23T17:41:20.166Z,20.10
2024-04-23T17:43:50.655Z,20.10
2024-04-23T17:46:19.695Z,20.10
2024-04-23T17:48:47.223Z,20.10
2024-04-23T17:51:14.205Z,20.10
2024-04-23T17:53:41.156Z,20.10
2024-04-23T17:56:08.096Z,20.10
2024-04-23T17:58:35.490Z,20.10
2024-04-23T18:01:06.799Z,20.10
2024-04-23T18:03:38.477Z,20.10
2024-04-23T18:06:05.732Z,20.10
2024-04-23T18:08:32.541Z,20.10
2024-04-23T18:10:59.671Z,20.10
2024-04-23T18:13:26.564Z,20.10
2024-04-23T18:15:53.417Z,20.10
2024-04-23T18:18:20.445Z,20.10
2024-04-23T18:20:47.442Z,20.10
2024-04-23T18:23:14.325Z,20.10
2024-04-23T18:25:41.169Z,20.10
2024-04-23T18:28:07.969Z,20.10
2024-04-23T18:30:36.104Z,20.10
2024-04-23T18:33:03.093Z,20.10
2024-04-23T18:35:29.961Z,20.10
2024-04-23T18:37:56.848Z,20.10
2024-04-23T18:40:23.662Z,20.00
2024-04-23T18:42:51.487Z,20.10
2024-04-23T18:45:18.482Z,20.20
2024-04-23T18:47:46.073Z,20.30
2024-04-23T18:50:12.976Z,20.40
2024-04-23T18:52:40.383Z,20.50
2024-04-23T18:55:07.347Z,20.70
2024-04-23T18:57:34.170Z,20.70
2024-04-23T19:00:01.893Z,20.80
2024-04-23T19:02:30.294Z,20.80
2024-04-23T19:04:58.714Z,20.70
2024-04-23T19:07:25.609Z,20.70
2024-04-23T19:09:52.400Z,20.60
2024-04-23T19:12:19.786Z,20.60
2024-04-23T19:14:46.813Z,20.50
2024-04-23T19:17:13.796Z,20.50
2024-04-23T19:19:40.674Z,20.40
2024-04-23T19:22:07.483Z,20.50
2024-04-23T19:24:34.295Z,20.40
2024-04-23T19:27:03.358Z,20.40
2024-04-23T19:29:30.137Z,20.40
2024-04-23T19:31:57.111Z,20.40
2024-04-23T19:34:23.928Z,20.40
2024-04-23T19:36:51.060Z,20.30
2024-04-23T19:39:17.845Z,20.30
2024-04-23T19:41:44.639Z,20.30
2024-04-23T19:44:11.477Z,20.30
2024-04-23T19:46:41.936Z,20.30
2024-04-23T19:49:09.408Z,20.30
2024-04-23T19:51:36.189Z,20.20
2024-04-23T19:54:03.027Z,20.20
2024-04-23T19:56:55.894Z,20.20
2024-04-23T19:59:22.893Z,20.20
2024-04-23T20:01:49.883Z,20.20
2024-04-23T20:04:19.550Z,20.20
2024-04-23T20:06:46.403Z,20.20
2024-04-23T20:09:15.623Z,20.10
2024-04-23T20:11:42.955Z,20.20
2024-04-23T20:14:09.929Z,20.20
2024-04-23T20:16:36.749Z,20.20
2024-04-23T20:19:03.627Z,20.20
2024-04-23T20:21:30.726Z,20.20
2024-04-23T20:23:57.547Z,20.20
2024-04-23T20:26:25.072Z,20.20
2024-04-23T20:28:53.632Z,20.10
2024-04-23T20:31:21.074Z,20.10
2024-04-23T20:33:49.661Z,20.10
2024-04-23T20:36:16.576Z,20.10
2024-04-23T20:38:43.484Z,20.10
2024-04-23T20:41:16.741Z,20.20
2024-04-23T20:43:43.852Z,20.10
2024-04-23T20:46:11.169Z,20.10
2024-04-23T20:48:38.229Z,20.10
2024-04-23T20:51:05.342Z,20.10
2024-04-23T20:53:32.187Z,20.10
2024-04-23T20:56:08.585Z,20.10
2024-04-23T20:58:35.543Z,20.00
2024-04-23T21:01:09.399Z,20.10
2024-04-23T21:03:36.446Z,20.10
2024-04-23T21:06:07.617Z,20.10
2024-04-23T21:08:34.412Z,20.10
2024-04-23T21:11:01.350Z,20.10
2024-04-23T21:13:29.835Z,20.10
2024-04-23T21:15:58.270Z,20.00
2024-04-23T21:18:25.068Z,20.10
2024-04-23T21:20:51.854Z,20.00
2024-04-23T21:23:18.730Z,20.00
2024-04-23T21:25:45.612Z,20.00
2024-04-23T21:28:12.418Z,20.00
2024-04-23T21:30:39.173Z,19.90
2024-04-23T21:33:05.993Z,20.00
2024-04-23T21:35:32.782Z,20.00
2024-04-23T21:37:59.617Z,20.00
2024-04-23T21:40:26.410Z,20.00
2024-04-23T21:42:54.324Z,20.00
2024-04-23T21:45:21.091Z,20.00
2024-04-23T21:47:47.983Z,20.00
2024-04-23T21:50:14.883Z,20.00
2024-04-23T21:52:43.083Z,19.90
2024-04-23T21:55:10.405Z,19.90
2024-04-23T21:57:37.526Z,19.90
2024-04-23T22:00:06.250Z,19.90
2024-04-23T22:02:33.602Z,19.90
2024-04-23T22:05:00.657Z,19.90
2024-04-23T22:07:27.604Z,19.90
2024-04-23T22:09:54.373Z,19.90
2024-04-23T22:12:21.110Z,19.90
2024-04-23T22:14:48.065Z,19.90
2024-04-23T22:17:14.909Z,19.90
2024-04-23T22:19:41.772Z,19.90
2024-04-23T22:22:08.500Z,19.90
2024-04-23T22:24:35.335Z,19.90
2024-04-23T22:27:02.062Z,19.90
2024-04-23T22:29:28.820Z,19.90
2024-04-23T22:31:55.616Z,19.80
2024-04-23T22:34:22.413Z,19.90
2024-04-23T22:36:49.174Z,19.80
2024-04-23T22:39:15.996Z,19.90
2024-04-23T22:41:42.798Z,19.90
2024-04-23T22:44:09.631Z,19.80
2024-04-23T22:46:36.448Z,19.80
2024-04-23T22:49:03.601Z,19.90
2024-04-23T22:51:30.481Z,19.90
2024-04-23T22:53:57.382Z,19.90
2024-04-23T22:56:24.254Z,19.80
2024-04-23T22:58:51.064Z,19.90
2024-04-23T23:01:17.840Z,19.80
2024-04-23T23:03:44.681Z,19.80
2024-04-23T23:06:11.517Z,19.90
2024-04-23T23:08:38.270Z,19.80
2024-04-23T23:11:05.197Z,19.90
2024-04-23T23:13:32.014Z,19.80
2024-04-23T23:15:59.045Z,19.80
2024-04-23T23:18:25.810Z,19.80
2024-04-23T23:20:52.711Z,19.80
2024-04-23T23:23:19.695Z,19.80
2024-04-23T23:25:46.604Z,19.80
2024-04-23T23:28:13.456Z,19.80
2024-04-23T23:30:41.256Z,19.80
2024-04-23T23:33:08.118Z,19.80
2024-04-23T23:35:34.965Z,19.80
2024-04-23T23:38:01.828Z,19.80
2024-04-23T23:40:28.616Z,19.80
2024-04-23T23:42:55.501Z,19.80
2024-04-23T23:45:25.560Z,19.80
2024-04-23T23:47:53.824Z,19.80
2024-04-23T23:50:20.810Z,19.80
2024-04-23T23:52:47.671Z,19.70
2024-04-23T23:55:14.450Z,19.70
2024-04-23T23:57:41.513Z,19.80
